Time;durP1;ratioP1;P1;durP2;ratioP2;P2;SDS_P1;SDS_P2;PMS_P1;PMS_P2;Temp;Humidity;BMP_temperature;BMP_pressure;BME280_temperature;BME280_humidity;BME280_pressure;Samples;Min_cycle;Max_cycle;Signal;HPM_P1;HPM_P2
2022/07/28 00:00:16;;;;;;;9.15;1.95;;;15.30;90.70;;;;;;4998699;28;20049;-73
2022/07/28 00:02:44;;;;;;;5.90;1.63;;;15.40;90.80;;;;;;4997400;28;20037;-74
2022/07/28 00:05:11;;;;;;;10.77;2.20;;;15.40;91.10;;;;;;5014995;28;20061;-73
2022/07/28 00:07:39;;;;;;;6.05;1.83;;;15.40;90.90;;;;;;5015062;28;20050;-73
2022/07/28 00:10:07;;;;;;;6.45;1.48;;;15.40;90.90;;;;;;4998604;28;20066;-73
2022/07/28 00:12:35;;;;;;;;;;;15.30;90.90;;;;;;5015922;28;20042;-73
2022/07/28 00:15:03;;;;;;;7.85;1.50;;;15.30;91.30;;;;;;5014484;28;19932;-73
2022/07/28 00:17:31;;;;;;;;;;;15.20;91.00;;;;;;5015961;28;20368;-73
2022/07/28 00:19:58;;;;;;;8.52;2.00;;;15.20;91.50;;;;;;5015754;28;19921;-73
2022/07/28 00:22:26;;;;;;;7.70;2.00;;;15.20;91.10;;;;;;5014136;28;20053;-73
2022/07/28 00:24:54;;;;;;;8.57;1.77;;;15.10;91.10;;;;;;5015571;28;20049;-73
2022/07/28 00:27:21;;;;;;;6.05;1.80;;;15.10;91.20;;;;;;5014235;28;20053;-73
2022/07/28 00:29:49;;;;;;;7.55;1.70;;;15.10;91.40;;;;;;5015351;28;20385;-73
2022/07/28 00:32:19;;;;;;;4.78;1.70;;;15.00;91.50;;;;;;5015020;28;20057;-73
2022/07/28 00:34:47;;;;;;;8.10;1.70;;;14.90;91.60;;;;;;4996728;28;20377;-73
2022/07/28 00:37:14;;;;;;;6.68;1.83;;;14.90;91.70;;;;;;5015375;28;20046;-73
2022/07/28 00:39:42;;;;;;;6.68;1.83;;;14.80;91.90;;;;;;5014924;28;20056;-73
2022/07/28 00:42:11;;;;;;;7.55;1.73;;;14.70;92.00;;;;;;4996652;28;20053;-72
2022/07/28 00:44:40;;;;;;;4.55;1.67;;;14.70;92.10;;;;;;5014655;28;20046;-73
2022/07/28 00:47:08;;;;;;;5.75;1.50;;;14.60;92.20;;;;;;5014862;28;20072;-73
2022/07/28 00:49:36;;;;;;;4.47;1.50;;;14.50;92.50;;;;;;5013614;28;20058;-73
2022/07/28 00:52:06;;;;;;;8.18;1.77;;;14.40;92.70;;;;;;5014961;28;20377;-73
2022/07/28 00:54:34;;;;;;;9.18;1.90;;;14.30;92.90;;;;;;4996706;28;20046;-73
2022/07/28 00:57:02;;;;;;;5.55;1.67;;;14.20;93.10;;;;;;5014769;28;20042;-73
2022/07/28 00:59:30;;;;;;;6.85;1.83;;;14.20;93.30;;;;;;5015391;28;20057;-73
2022/07/28 01:02:01;;;;;;;5.97;1.45;;;14.20;93.50;;;;;;5014043;28;20054;-73
2022/07/28 01:04:29;;;;;;;9.77;1.80;;;14.10;93.50;;;;;;4997870;28;20049;-73
2022/07/28 01:07:15;;;;;;;6.20;1.60;;;14.20;93.60;;;;;;5014844;28;20050;-73
2022/07/28 01:10:01;;;;;;;5.18;1.63;;;14.20;93.90;;;;;;4997803;28;20408;-73
2022/07/28 01:12:31;;;;;;;8.40;2.00;;;14.20;93.90;;;;;;5014790;28;20042;-73
2022/07/28 01:15:20;;;;;;;6.50;1.83;;;14.20;93.90;;;;;;5013535;28;20461;-73
2022/07/28 01:18:14;;;;;;;8.20;1.50;;;14.30;94.00;;;;;;5014667;28;20046;-73
2022/07/28 01:20:48;;;;;;;7.18;1.75;;;14.30;94.30;;;;;;4977303;28;20045;-73
2022/07/28 01:23:45;;;;;;;7.50;2.05;;;14.30;94.00;;;;;;5014926;28;20496;-72
2022/07/28 01:26:29;;;;;;;7.40;1.73;;;14.40;94.30;;;;;;5014554;28;20492;-73
2022/07/28 01:29:02;;;;;;;5.53;1.73;;;14.40;94.10;;;;;;4996363;28;20046;-73
2022/07/28 01:31:39;;;;;;;15.77;2.20;;;14.50;94.10;;;;;;5014745;28;20481;-73
2022/07/28 01:34:13;;;;;;;8.57;1.88;;;14.50;94.20;;;;;;5013617;28;20489;-73
2022/07/28 01:36:45;;;;;;;7.35;2.25;;;14.50;94.10;;;;;;5014366;28;20049;-73
2022/07/28 01:39:16;;;;;;;10.25;1.90;;;14.50;94.10;;;;;;5014669;28;20045;-72
2022/07/28 01:41:45;;;;;;;7.00;1.70;;;14.60;94.40;;;;;;5013329;28;20382;-73
2022/07/28 01:44:18;;;;;;;9.82;2.20;;;14.60;94.20;;;;;;5014509;28;20046;-73
2022/07/28 01:46:47;;;;;;;5.85;1.80;;;14.60;94.20;;;;;;5014341;28;20049;-73
2022/07/28 01:49:17;;;;;;;6.00;1.60;;;14.60;94.20;;;;;;5013043;28;20046;-73
2022/07/28 01:51:46;;;;;;;7.60;1.55;;;14.60;94.20;;;;;;5014323;28;20049;-73
2022/07/28 01:54:15;;;;;;;5.65;1.70;;;14.60;94.30;;;;;;5013338;28;20053;-73
2022/07/28 01:56:45;;;;;;;8.35;1.77;;;14.60;94.30;;;;;;5015663;28;20389;-74
2022/07/28 01:59:14;;;;;;;9.30;1.77;;;14.60;94.40;;;;;;5000876;28;20061;-73
2022/07/28 02:01:44;;;;;;;5.25;1.63;;;14.70;94.80;;;;;;5016775;28;20377;-73
2022/07/28 02:04:14;;;;;;;5.43;1.48;;;14.60;94.50;;;;;;5018182;28;20064;-73
2022/07/28 02:06:43;;;;;;;7.93;1.80;;;14.70;94.60;;;;;;5018241;28;20134;-73
2022/07/28 02:09:11;;;;;;;7.70;1.65;;;14.70;94.60;;;;;;4999434;28;20053;-73
2022/07/28 02:11:40;;;;;;;5.65;1.73;;;14.70;94.60;;;;;;5017642;28;20516;-73
2022/07/28 02:14:16;;;;;;;7.43;1.73;;;14.70;94.70;;;;;;5016581;28;20356;-73
2022/07/28 02:17:02;;;;;;;9.07;2.05;;;14.70;94.80;;;;;;5017510;28;20053;-73
2022/07/28 02:19:31;;;;;;;5.40;1.80;;;14.70;94.90;;;;;;5000290;28;20057;-73
2022/07/28 02:22:02;;;;;;;5.28;1.75;;;14.70;94.80;;;;;;4999138;28;20042;-73
2022/07/28 02:24:31;;;;;;;6.53;1.77;;;14.70;94.80;;;;;;5017318;28;20519;-73
2022/07/28 02:27:04;;;;;;;7.45;1.63;;;14.70;94.80;;;;;;5017757;28;20065;-73
2022/07/28 02:29:40;;;;;;;6.15;1.70;;;14.80;95.00;;;;;;4999249;28;20046;-73
2022/07/28 02:32:17;;;;;;;7.10;2.10;;;14.80;95.00;;;;;;5018149;28;20050;-73
2022/07/28 02:35:01;;;;;;;10.02;2.00;;;14.80;95.00;;;;;;5015983;28;20061;-73
2022/07/28 02:37:35;;;;;;;6.70;1.85;;;14.80;95.00;;;;;;5017579;28;20046;-73
2022/07/28 02:40:04;;;;;;;7.05;1.85;;;14.80;95.10;;;;;;5017477;28;20049;-73
2022/07/28 02:42:34;;;;;;;8.50;1.95;;;14.80;95.10;;;;;;5015998;28;20373;-73
2022/07/28 02:45:05;;;;;;;6.90;1.75;;;14.80;95.20;;;;;;5017023;28;20473;-73
2022/07/28 02:47:39;;;;;;;9.77;1.98;;;14.80;95.30;;;;;;5015834;28;20495;-73
2022/07/28 02:50:07;;;;;;;31.13;2.47;;;14.80;95.30;;;;;;5006855;28;20064;-73
2022/07/28 02:52:35;;;;;;;7.75;2.13;;;14.80;95.30;;;;;;5036550;28;20049;-73
2022/07/28 02:55:04;;;;;;;7.13;1.90;;;14.80;95.40;;;;;;5035377;28;20050;-73
2022/07/28 02:57:33;;;;;;;7.07;1.98;;;14.80;95.40;;;;;;5036665;28;20033;-73
2022/07/28 03:00:01;;;;;;;8.68;1.85;;;14.80;95.50;;;;;;5036460;28;20052;-73
2022/07/28 03:02:29;;;;;;;11.77;2.17;;;14.80;95.50;;;;;;5035345;28;20045;-73
2022/07/28 03:05:01;;;;;;;;;;;14.80;95.60;;;;;;5036872;28;20053;-73
2022/07/28 03:07:37;;;;;;;7.22;1.83;;;14.80;95.90;;;;;;5035657;28;20095;-73
2022/07/28 03:10:24;;;;;;;11.52;2.30;;;14.80;95.60;;;;;;5036447;28;20046;-73
2022/07/28 03:13:03;;;;;;;6.30;1.70;;;14.80;95.70;;;;;;5036560;28;20046;-73
2022/07/28 03:15:31;;;;;;;10.07;1.80;;;14.80;95.80;;;;;;5034349;28;20388;-74
2022/07/28 03:18:00;;;;;;;14.40;2.05;;;14.80;95.90;;;;;;5036332;28;20060;-73
2022/07/28 03:20:28;;;;;;;7.15;2.08;;;14.80;96.00;;;;;;5035233;28;20049;-73
2022/07/28 03:22:57;;;;;;;7.22;2.08;;;14.70;96.00;;;;;;5033900;28;20037;-73
2022/07/28 03:25:43;;;;;;;6.60;1.83;;;14.70;96.10;;;;;;5035162;28;20061;-73
2022/07/28 03:28:16;;;;;;;6.72;2.03;;;14.70;96.40;;;;;;5034372;28;20053;-73
2022/07/28 03:30:56;;;;;;;7.30;1.90;;;14.70;96.30;;;;;;5036067;28;20053;-73
2022/07/28 03:33:25;;;;;;;7.10;2.10;;;14.70;96.40;;;;;;5035145;28;20465;-73
2022/07/28 03:35:57;;;;;;;9.43;2.10;;;14.70;96.40;;;;;;5034575;28;20041;-73
2022/07/28 03:38:52;;;;;;;10.40;2.08;;;14.60;96.60;;;;;;5035275;28;20068;-73
2022/07/28 03:41:21;;;;;;;13.85;2.45;;;14.70;97.10;;;;;;5029478;28;20057;-73
2022/07/28 03:43:50;;;;;;;6.18;2.17;;;14.60;96.90;;;;;;5035584;28;20049;-72
2022/07/28 03:46:20;;;;;;;8.07;2.08;;;14.60;96.90;;;;;;5035669;28;20053;-73
2022/07/28 03:48:48;;;;;;;10.85;2.05;;;14.60;97.10;;;;;;5031414;28;20069;-73
2022/07/28 03:51:15;;;;;;;7.82;2.25;;;14.50;97.20;;;;;;4998887;28;20457;-73
2022/07/28 03:53:43;;;;;;;7.38;1.83;;;14.50;97.30;;;;;;5015992;28;20049;-73
2022/07/28 03:56:11;;;;;;;7.55;2.05;;;14.40;97.50;;;;;;5014660;28;20041;-73
2022/07/28 03:58:39;;;;;;;7.75;1.95;;;14.40;97.70;;;;;;5015617;28;20049;-73
2022/07/28 04:01:06;;;;;;;10.30;2.25;;;14.30;97.90;;;;;;5014735;28;20045;-73
2022/07/28 04:03:34;;;;;;;10.43;2.25;;;14.30;98.00;;;;;;5015578;28;20473;-74
2022/07/28 04:06:09;;;;;;;12.60;2.30;;;14.30;98.10;;;;;;5015660;28;20052;-73
2022/07/28 04:08:36;;;;;;;11.98;2.40;;;14.30;98.20;;;;;;5014420;28;20053;-73
2022/07/28 04:11:04;;;;;;;9.15;2.70;;;14.30;98.30;;;;;;5016056;28;20054;-73
2022/07/28 04:13:32;;;;;;;9.80;2.38;;;14.30;98.40;;;;;;5015422;28;20046;-73
2022/07/28 04:15:59;;;;;;;9.15;2.72;;;14.30;98.60;;;;;;5014316;28;20045;-73
2022/07/28 04:18:27;;;;;;;10.27;2.47;;;14.30;98.60;;;;;;5015422;28;20057;-73
2022/07/28 04:20:55;;;;;;;8.27;2.40;;;14.30;98.70;;;;;;5015191;28;20206;-73
2022/07/28 04:23:23;;;;;;;10.23;2.58;;;14.30;98.70;;;;;;5015309;28;20052;-73
2022/07/28 04:25:51;;;;;;;18.05;2.53;;;14.30;98.70;;;;;;5015659;28;20041;-73
2022/07/28 04:28:18;;;;;;;8.88;2.17;;;14.30;99.00;;;;;;5014450;28;20045;-73
2022/07/28 04:30:46;;;;;;;9.02;2.40;;;14.20;99.00;;;;;;5015126;28;20468;-73
2022/07/28 04:33:14;;;;;;;12.07;2.58;;;14.20;99.10;;;;;;5015099;28;20045;-73
2022/07/28 04:35:41;;;;;;;8.13;2.60;;;14.20;99.20;;;;;;5014027;28;20065;-73
2022/07/28 04:38:10;;;;;;;12.40;2.55;;;14.20;99.30;;;;;;5015209;28;20061;-73
2022/07/28 04:40:38;;;;;;;8.32;2.30;;;14.20;99.50;;;;;;5013845;28;20046;-73
2022/07/28 04:43:06;;;;;;;7.97;2.40;;;14.20;99.70;;;;;;5015345;28;20042;-73
2022/07/28 04:45:33;;;;;;;8.13;2.38;;;14.20;99.70;;;;;;5015431;28;20054;-74
2022/07/28 04:48:01;;;;;;;10.60;2.30;;;14.30;99.80;;;;;;4996912;28;20053;-73
2022/07/28 04:50:28;;;;;;;7.82;2.50;;;14.30;99.80;;;;;;5014668;28;20472;-73
2022/07/28 04:52:59;;;;;;;12.45;2.58;;;14.30;99.90;;;;;;4998201;28;20061;-74
2022/07/28 04:55:27;;;;;;;13.05;2.70;;;14.30;99.80;;;;;;5014038;28;20469;-72
2022/07/28 04:57:54;;;;;;;7.45;2.45;;;14.30;99.80;;;;;;5014921;28;20042;-73
2022/07/28 05:00:22;;;;;;;11.35;2.80;;;14.30;99.90;;;;;;4997705;28;20050;-73
2022/07/28 05:02:50;;;;;;;7.65;2.80;;;14.30;99.90;;;;;;5013726;28;20053;-73
2022/07/28 05:05:18;;;;;;;14.07;2.85;;;14.20;99.90;;;;;;5014710;28;20050;-74
2022/07/28 05:07:45;;;;;;;10.77;2.78;;;14.20;99.90;;;;;;5013642;28;20041;-74
2022/07/28 05:10:13;;;;;;;8.27;2.55;;;14.20;99.90;;;;;;5014812;28;20081;-74
2022/07/28 05:12:41;;;;;;;13.23;2.85;;;14.20;99.90;;;;;;4997643;28;20042;-73
2022/07/28 05:15:08;;;;;;;;;;;14.20;99.90;;;;;;5013964;28;20496;-73
2022/07/28 05:17:36;;;;;;;11.65;3.13;;;14.20;99.90;;;;;;5014776;28;19928;-73
2022/07/28 05:20:05;;;;;;;10.88;3.00;;;14.20;99.90;;;;;;5014567;28;20053;-73
2022/07/28 05:22:44;;;;;;;9.27;2.78;;;14.20;99.90;;;;;;5013521;28;20054;-74
2022/07/28 05:25:19;;;;;;;21.38;3.90;;;14.20;99.90;;;;;;4997555;28;20065;-73
2022/07/28 05:27:48;;;;;;;11.57;4.05;;;14.20;99.90;;;;;;5013703;28;20057;-73
2022/07/28 05:30:16;;;;;;;15.65;3.67;;;14.20;99.90;;;;;;5014419;28;20049;-73
2022/07/28 05:32:44;;;;;;;8.48;3.28;;;14.20;99.90;;;;;;5017447;28;20045;-72
2022/07/28 05:35:12;;;;;;;7.00;2.92;;;14.30;99.90;;;;;;5017296;28;20054;-74
2022/07/28 05:37:40;;;;;;;15.07;2.72;;;14.30;99.90;;;;;;5018210;28;20047;-73
2022/07/28 05:40:12;;;;;;;16.27;3.50;;;14.30;99.90;;;;;;5018551;28;20049;-73
2022/07/28 05:42:42;;;;;;;12.30;3.10;;;14.30;99.90;;;;;;5017000;28;20042;-74
2022/07/28 05:45:11;;;;;;;9.98;2.78;;;14.40;99.90;;;;;;4985551;28;20465;-73
2022/07/28 05:47:46;;;;;;;13.15;2.83;;;14.40;99.90;;;;;;5017328;28;20041;-73
2022/07/28 05:50:14;;;;;;;11.70;2.80;;;14.40;99.90;;;;;;5018269;28;20057;-74
2022/07/28 05:52:42;;;;;;;7.90;2.60;;;14.40;99.90;;;;;;5018152;28;20049;-74
2022/07/28 05:55:10;;;;;;;11.55;2.60;;;14.40;99.90;;;;;;5016023;28;20049;-74
2022/07/28 05:57:39;;;;;;;13.43;2.78;;;14.50;99.90;;;;;;5000838;28;20045;-74
2022/07/28 06:00:15;;;;;;;15.30;3.10;;;14.50;99.90;;;;;;5017856;28;20054;-74
2022/07/28 06:02:44;;;;;;;13.35;2.65;;;14.70;99.90;;;;;;4999694;28;20408;-73
2022/07/28 06:05:12;;;;;;;9.25;2.25;;;14.80;99.90;;;;;;5018042;28;20053;-74
2022/07/28 06:07:40;;;;;;;;;;;14.90;99.90;;;;;;5016999;28;20404;-74
2022/07/28 06:10:12;;;;;;;9.75;2.80;;;15.10;99.90;;;;;;5018084;28;20336;-73
2022/07/28 06:12:45;;;;;;;13.48;2.47;;;15.30;99.90;;;;;;5017663;28;20050;-74
2022/07/28 06:15:19;;;;;;;10.73;2.55;;;15.50;99.90;;;;;;5016760;28;20057;-74
2022/07/28 06:17:51;;;;;;;12.40;2.50;;;15.70;99.80;;;;;;5017628;28;20053;-73
2022/07/28 06:20:23;;;;;;;15.43;2.90;;;15.90;99.20;;;;;;5017736;28;20049;-74
2022/07/28 06:22:54;;;;;;;11.05;2.55;;;16.10;98.80;;;;;;5016389;28;20037;-73
2022/07/28 06:25:24;;;;;;;11.38;2.67;;;16.30;98.20;;;;;;5017375;28;20049;-74
2022/07/28 06:27:55;;;;;;;15.20;2.80;;;16.60;97.50;;;;;;4999357;28;20052;-74
2022/07/28 06:30:23;;;;;;;13.30;2.70;;;16.80;96.80;;;;;;5017541;28;20472;-73
2022/07/28 06:32:51;;;;;;;10.63;2.38;;;17.00;96.10;;;;;;5017181;28;20358;-73
2022/07/28 06:35:19;;;;;;;15.27;2.50;;;17.10;95.30;;;;;;5016346;28;20060;-73
2022/07/28 06:37:48;;;;;;;10.63;2.40;;;17.30;94.80;;;;;;5017317;28;20050;-74
2022/07/28 06:40:17;;;;;;;12.75;2.15;;;17.40;94.10;;;;;;5017375;28;20057;-73
2022/07/28 06:42:45;;;;;;;8.48;2.13;;;17.60;93.40;;;;;;5015592;28;20377;-73
2022/07/28 06:45:14;;;;;;;8.73;2.10;;;17.60;93.10;;;;;;5016980;28;20053;-77
2022/07/28 06:47:48;;;;;;;10.18;2.22;;;17.70;92.60;;;;;;5015825;28;20473;-75
2022/07/28 06:50:17;;;;;;;13.43;2.40;;;17.80;92.10;;;;;;5018282;28;20057;-76
2022/07/28 06:52:56;;;;;;;7.68;2.25;;;17.90;91.90;;;;;;5016654;28;20049;-72
2022/07/28 06:55:26;;;;;;;19.17;2.33;;;17.90;91.30;;;;;;5015425;28;20050;-74
2022/07/28 06:58:01;;;;;;;11.48;2.42;;;18.00;91.20;;;;;;5016491;28;20046;-72
2022/07/28 07:00:29;;;;;;;15.43;2.40;;;18.10;90.90;;;;;;5016393;28;20053;-75
2022/07/28 07:02:57;;;;;;;10.00;2.40;;;18.20;90.50;;;;;;5015236;28;20481;-74
2022/07/28 07:05:27;;;;;;;12.95;2.17;;;18.20;90.30;;;;;;5016259;28;20057;-71
2022/07/28 07:07:54;;;;;;;15.15;2.30;;;18.40;90.20;;;;;;5015144;28;20050;-72
2022/07/28 07:10:22;;;;;;;6.30;1.88;;;18.50;90.10;;;;;;5016359;28;20049;-73
2022/07/28 07:12:50;;;;;;;12.50;2.10;;;18.70;88.70;;;;;;5016235;28;20049;-74
2022/07/28 07:15:18;;;;;;;11.95;1.95;;;18.80;88.00;;;;;;5015175;28;20053;-74
2022/07/28 07:17:45;;;;;;;8.68;1.92;;;18.90;87.30;;;;;;5016079;28;20045;-75
2022/07/28 07:20:13;;;;;;;8.85;2.13;;;19.10;87.00;;;;;;5015924;28;20049;-73
2022/07/28 07:22:45;;;;;;;11.23;2.08;;;19.20;86.40;;;;;;5014922;28;20068;-73
2022/07/28 07:25:17;;;;;;;10.35;2.20;;;19.30;85.30;;;;;;5016041;28;20049;-72
2022/07/28 07:27:45;;;;;;;11.90;2.28;;;19.30;84.40;;;;;;4997691;28;20049;-76
2022/07/28 07:30:13;;;;;;;;;;;19.30;83.70;;;;;;5016272;28;20046;-78
2022/07/28 07:32:41;;;;;;;;;;;19.40;81.10;;;;;;5021964;28;20272;-76
2022/07/28 07:35:09;;;;;;;6.13;1.75;;;19.30;80.70;;;;;;5013367;28;20245;-74
2022/07/28 07:37:37;;;;;;;;;;;19.40;83.00;;;;;;5030847;28;20297;-76
2022/07/28 07:40:05;;;;;;;9.18;2.10;;;19.40;80.30;;;;;;5035601;28;19921;-74
2022/07/28 07:42:32;;;;;;;9.50;1.90;;;19.40;82.20;;;;;;5034641;28;20459;-76
2022/07/28 07:45:00;;;;;;;8.32;2.20;;;19.40;81.80;;;;;;5036123;28;20057;-74
2022/07/28 07:47:28;;;;;;;10.20;2.33;;;19.40;81.20;;;;;;5034622;28;20053;-74
2022/07/28 07:49:55;;;;;;;11.50;1.90;;;19.40;81.60;;;;;;5034636;28;20057;-73
2022/07/28 07:52:23;;;;;;;10.57;1.92;;;19.40;81.50;;;;;;5055998;28;20053;-74
2022/07/28 07:54:50;;;;;;;8.73;2.17;;;19.40;81.20;;;;;;5052800;28;20053;-76
2022/07/28 07:57:18;;;;;;;10.02;2.20;;;19.50;81.30;;;;;;5055195;28;20049;-74
2022/07/28 07:59:45;;;;;;;6.43;1.98;;;19.50;80.60;;;;;;5055297;28;20049;-75
2022/07/28 08:02:13;;;;;;;9.70;1.95;;;19.50;80.40;;;;;;5054178;28;20045;-76
2022/07/28 08:04:41;;;;;;;10.15;2.03;;;19.60;79.90;;;;;;5055854;28;20048;-74
2022/07/28 08:07:09;;;;;;;9.55;1.80;;;19.60;79.60;;;;;;5054218;28;20053;-73
2022/07/28 08:09:37;;;;;;;7.85;1.90;;;19.70;79.70;;;;;;5054016;28;20523;-73
2022/07/28 08:12:04;;;;;;;10.05;2.38;;;19.90;79.10;;;;;;5054256;28;20460;-73
2022/07/28 08:14:32;;;;;;;7.03;1.85;;;20.00;78.30;;;;;;5053289;28;20045;-73
2022/07/28 08:17:00;;;;;;;8.00;1.67;;;20.00;77.60;;;;;;5055120;28;20372;-73
2022/07/28 08:19:28;;;;;;;5.95;1.95;;;20.10;77.30;;;;;;5054110;28;20371;-72
2022/07/28 08:21:55;;;;;;;7.88;1.88;;;20.20;77.10;;;;;;5054401;28;20044;-72
2022/07/28 08:24:23;;;;;;;6.68;1.83;;;20.30;76.80;;;;;;5054428;28;20056;-73
2022/07/28 08:27:01;;;;;;;9.30;2.00;;;20.30;76.20;;;;;;5055489;28;20064;-73
2022/07/28 08:29:28;;;;;;;6.57;1.90;;;20.50;75.70;;;;;;5053703;28;20056;-72
2022/07/28 08:31:56;;;;;;;10.50;1.88;;;20.50;75.20;;;;;;5054730;28;20053;-72
2022/07/28 08:34:24;;;;;;;9.50;1.90;;;20.60;74.60;;;;;;5052956;28;20060;-73
2022/07/28 08:37:02;;;;;;;7.95;1.77;;;20.60;74.10;;;;;;5053926;28;20047;-73
2022/07/28 08:39:31;;;;;;;5.82;1.60;;;20.70;74.00;;;;;;5054821;28;20055;-72
2022/07/28 08:42:10;;;;;;;6.78;1.80;;;20.70;74.30;;;;;;5053531;28;20049;-72
2022/07/28 08:45:00;;;;;;;8.90;1.50;;;20.80;73.00;;;;;;5054885;28;20498;-72
2022/07/28 08:47:30;;;;;;;6.18;1.50;;;20.90;71.90;;;;;;5053770;28;20379;-73
2022/07/28 08:50:08;;;;;;;8.10;1.83;;;20.90;72.20;;;;;;5042719;28;20468;-73
2022/07/28 08:52:38;;;;;;;8.20;1.67;;;21.00;72.40;;;;;;5035100;28;20045;-72
2022/07/28 08:55:07;;;;;;;9.02;1.80;;;21.00;71.80;;;;;;5033944;28;20473;-74
2022/07/28 08:57:39;;;;;;;8.18;1.63;;;21.00;71.50;;;;;;5034969;28;20356;-74
2022/07/28 09:00:11;;;;;;;7.05;1.67;;;21.10;71.30;;;;;;5034436;28;20046;-76
2022/07/28 09:02:44;;;;;;;6.40;1.67;;;21.10;71.10;;;;;;5033436;28;20042;-76
2022/07/28 09:05:12;;;;;;;7.18;1.42;;;21.10;70.10;;;;;;5035269;28;20068;-76
2022/07/28 09:07:40;;;;;;;7.20;1.80;;;21.00;70.50;;;;;;5020528;28;20064;-75
2022/07/28 09:10:10;;;;;;;6.40;1.85;;;21.00;70.10;;;;;;5038908;28;20460;-77
2022/07/28 09:12:41;;;;;;;9.50;1.90;;;21.00;70.10;;;;;;5038435;28;20056;-76
2022/07/28 09:15:10;;;;;;;8.63;1.70;;;21.10;70.40;;;;;;5037387;28;20045;-78
2022/07/28 09:17:39;;;;;;;6.05;1.60;;;21.10;70.30;;;;;;5038681;28;20392;-77
2022/07/28 09:20:08;;;;;;;11.13;1.90;;;21.30;70.10;;;;;;5038473;28;20453;-76
2022/07/28 09:23:00;;;;;;;7.88;1.67;;;21.40;69.90;;;;;;5037504;28;20050;-76
2022/07/28 09:25:29;;;;;;;9.18;1.80;;;21.50;67.50;;;;;;5021082;28;20045;-73
2022/07/28 09:28:07;;;;;;;10.07;1.50;;;21.60;68.20;;;;;;5037767;28;20053;-75
2022/07/28 09:30:43;;;;;;;7.43;1.90;;;21.80;67.30;;;;;;5037518;28;20476;-74
2022/07/28 09:33:26;;;;;;;7.93;1.67;;;21.90;66.50;;;;;;5037988;28;20049;-73
2022/07/28 09:36:15;;;;;;;7.55;1.70;;;21.90;67.20;;;;;;5036683;28;20053;-72
2022/07/28 09:38:43;;;;;;;10.02;1.60;;;22.10;67.40;;;;;;5037819;28;20372;-74
2022/07/28 09:41:11;;;;;;;9.43;1.70;;;22.20;67.10;;;;;;5036663;28;20057;-74
2022/07/28 09:43:42;;;;;;;6.45;1.40;;;22.40;66.80;;;;;;5037475;28;20041;-72
2022/07/28 09:46:15;;;;;;;6.47;1.65;;;22.50;65.90;;;;;;5020659;28;20037;-74
2022/07/28 09:48:49;;;;;;;5.05;1.40;;;22.60;65.20;;;;;;5036431;28;20050;-75
2022/07/28 09:51:20;;;;;;;8.25;1.70;;;22.70;63.90;;;;;;5020534;28;20377;-77
2022/07/28 09:53:48;;;;;;;7.00;1.70;;;22.80;64.10;;;;;;5037570;28;20060;-74
2022/07/28 09:56:16;;;;;;;8.20;1.70;;;22.90;64.10;;;;;;5019029;28;20349;-75
2022/07/28 09:58:55;;;;;;;5.50;1.67;;;23.10;63.80;;;;;;5037156;28;20048;-74
2022/07/28 10:01:25;;;;;;;8.45;2.00;;;23.20;62.50;;;;;;5036324;28;20468;-75
2022/07/28 10:04:02;;;;;;;;;;;23.30;63.30;;;;;;5020749;28;20417;-76
2022/07/28 10:06:31;;;;;;;10.18;1.70;;;23.40;62.00;;;;;;5037330;28;19921;-75
2022/07/28 10:09:02;;;;;;;7.03;1.83;;;23.50;63.50;;;;;;5018816;28;20365;-75
2022/07/28 10:11:29;;;;;;;8.40;1.73;;;23.60;63.10;;;;;;5037130;28;20049;-74
2022/07/28 10:13:57;;;;;;;;;;;23.70;62.60;;;;;;5036170;28;20042;-73
2022/07/28 10:16:32;;;;;;;8.13;1.70;;;23.80;62.00;;;;;;5036950;28;19920;-77
2022/07/28 10:19:02;;;;;;;7.45;1.60;;;23.70;62.50;;;;;;5036928;28;20365;-75
2022/07/28 10:21:33;;;;;;;5.53;1.85;;;23.70;62.90;;;;;;5036139;28;20048;-77
2022/07/28 10:24:08;;;;;;;9.35;1.90;;;23.70;62.80;;;;;;5036951;28;20045;-74
2022/07/28 10:26:43;;;;;;;7.47;1.77;;;23.60;62.10;;;;;;5036926;28;20041;-76
2022/07/28 10:29:19;;;;;;;7.63;1.90;;;23.60;62.80;;;;;;5018548;28;20514;-74
2022/07/28 10:31:56;;;;;;;6.95;1.75;;;23.80;62.60;;;;;;5036940;28;20464;-76
2022/07/28 10:34:32;;;;;;;6.43;1.70;;;23.90;62.10;;;;;;5035740;28;20049;-74
2022/07/28 10:37:05;;;;;;;7.30;1.80;;;23.90;62.20;;;;;;5036912;28;20054;-74
2022/07/28 10:39:41;;;;;;;9.27;2.03;;;24.00;61.70;;;;;;5019349;28;20037;-78
2022/07/28 10:42:11;;;;;;;9.90;1.80;;;23.90;61.50;;;;;;5035429;28;20045;-76
2022/07/28 10:44:40;;;;;;;6.38;2.10;;;23.70;61.80;;;;;;5036514;28;20049;-77
2022/07/28 10:47:11;;;;;;;7.95;2.10;;;23.70;62.10;;;;;;5036554;28;20041;-72
2022/07/28 10:49:47;;;;;;;9.68;2.15;;;23.70;62.00;;;;;;5035818;28;20083;-77
2022/07/28 10:52:19;;;;;;;7.50;1.95;;;23.80;62.20;;;;;;5023713;28;20054;-79
2022/07/28 10:55:26;;;;;;;9.88;1.98;;;23.80;62.10;;;;;;5015786;28;20137;-77
2022/07/28 10:58:13;;;;;;;10.25;1.90;;;23.80;62.40;;;;;;5010650;28;20372;-77
2022/07/28 11:00:52;;;;;;;10.27;2.13;;;23.70;62.10;;;;;;5017933;28;20492;-76
2022/07/28 11:03:42;;;;;;;7.40;1.90;;;23.70;62.40;;;;;;5019168;28;20061;-76
2022/07/28 11:06:23;;;;;;;10.77;2.38;;;23.70;62.50;;;;;;5036853;28;20471;-72
2022/07/28 11:08:54;;;;;;;6.38;1.80;;;23.70;62.30;;;;;;5018155;28;20052;-74
2022/07/28 11:11:43;;;;;;;7.65;2.35;;;23.80;62.70;;;;;;5023807;28;20060;-72
2022/07/28 11:14:28;;;;;;;7.65;2.28;;;23.80;63.00;;;;;;5015364;28;20361;-73
2022/07/28 11:17:05;;;;;;;7.38;2.08;;;23.80;64.00;;;;;;4999724;28;20065;-73
2022/07/28 11:19:43;;;;;;;7.78;2.15;;;23.90;64.50;;;;;;5016519;28;20121;-76
2022/07/28 11:22:32;;;;;;;8.68;2.67;;;24.00;64.30;;;;;;5015253;28;20037;-73
2022/07/28 11:25:01;;;;;;;10.13;2.40;;;24.20;64.10;;;;;;5016234;28;20042;-75
2022/07/28 11:27:53;;;;;;;11.95;2.45;;;24.20;64.20;;;;;;5015267;28;20050;-76
2022/07/28 11:30:27;;;;;;;9.18;2.42;;;24.20;64.50;;;;;;4998222;28;20049;-73
2022/07/28 11:32:56;;;;;;;13.55;2.97;;;24.10;64.50;;;;;;5016583;28;20045;-74
2022/07/28 11:35:50;;;;;;;8.85;2.80;;;24.00;64.90;;;;;;5015070;28;20338;-73
2022/07/28 11:38:18;;;;;;;11.02;2.70;;;23.80;65.40;;;;;;5016186;28;20368;-73
2022/07/28 11:40:49;;;;;;;8.85;2.50;;;23.70;65.90;;;;;;4997820;28;20057;-74
2022/07/28 11:43:22;;;;;;;10.10;2.60;;;24.50;66.20;;;;;;5020925;28;20356;-76
2022/07/28 11:46:03;;;;;;;9.75;2.53;;;23.60;65.70;;;;;;5014583;28;20049;-74
2022/07/28 11:48:38;;;;;;;12.63;2.65;;;23.60;66.00;;;;;;5014931;28;20488;-75
2022/07/28 11:51:06;;;;;;;13.88;2.63;;;23.70;66.00;;;;;;5014246;28;20054;-73
2022/07/28 11:53:40;;;;;;;8.27;2.30;;;23.80;66.30;;;;;;5015004;28;20077;-72
2022/07/28 11:56:13;;;;;;;7.38;2.45;;;23.80;65.90;;;;;;5014400;28;20058;-73
2022/07/28 11:58:42;;;;;;;10.80;2.67;;;23.90;65.80;;;;;;4998426;28;20045;-75
2022/07/28 12:01:14;;;;;;;14.38;2.55;;;24.10;66.00;;;;;;5014298;28;20052;-74
2022/07/28 12:03:47;;;;;;;9.30;2.70;;;24.20;65.80;;;;;;5015223;28;20046;-72
2022/07/28 12:06:24;;;;;;;9.05;2.67;;;24.40;65.70;;;;;;4999178;28;20046;-74
2022/07/28 12:09:06;;;;;;;10.45;2.90;;;24.60;65.30;;;;;;5014349;28;20054;-73
2022/07/28 12:11:36;;;;;;;8.63;2.35;;;24.80;65.00;;;;;;5015267;28;20389;-72
2022/07/28 12:14:12;;;;;;;9.73;2.50;;;24.90;64.60;;;;;;5014115;28;20045;-72
2022/07/28 12:16:42;;;;;;;15.77;3.30;;;25.00;64.10;;;;;;4998262;28;20045;-72
2022/07/28 12:19:14;;;;;;;13.45;2.92;;;25.10;64.00;;;;;;5014734;28;20053;-72
2022/07/28 12:21:44;;;;;;;10.23;2.95;;;25.10;63.60;;;;;;4997007;28;20058;-74
2022/07/28 12:24:27;;;;;;;9.35;3.00;;;25.20;64.00;;;;;;5015040;28;20050;-73
2022/07/28 12:26:56;;;;;;;8.63;2.38;;;25.30;63.80;;;;;;4997807;28;20041;-75
2022/07/28 12:29:28;;;;;;;13.05;2.70;;;25.40;63.80;;;;;;5013969;28;20050;-73
2022/07/28 12:32:08;;;;;;;7.00;2.35;;;25.50;63.90;;;;;;5015015;28;20469;-75
2022/07/28 12:34:39;;;;;;;11.02;2.65;;;25.60;63.30;;;;;;5013644;28;20050;-74
2022/07/28 12:37:08;;;;;;;8.95;2.30;;;25.70;63.40;;;;;;5014794;28;20396;-74
2022/07/28 12:39:40;;;;;;;8.52;2.33;;;25.80;63.40;;;;;;5014704;28;20385;-75
2022/07/28 12:42:11;;;;;;;10.60;2.90;;;25.90;63.30;;;;;;5013615;28;20042;-73
2022/07/28 12:44:41;;;;;;;12.27;2.92;;;25.90;63.20;;;;;;5014748;28;20041;-71
2022/07/28 12:47:11;;;;;;;12.95;2.55;;;25.90;63.50;;;;;;5014790;28;20045;-74
2022/07/28 12:49:41;;;;;;;14.15;2.70;;;25.80;63.80;;;;;;5024468;28;20492;-75
2022/07/28 12:52:21;;;;;;;8.88;2.40;;;25.80;63.90;;;;;;5034437;28;20057;-75
2022/07/28 12:54:51;;;;;;;10.73;2.58;;;25.60;63.70;;;;;;5016673;28;20068;-75
2022/07/28 12:57:41;;;;;;;12.50;2.85;;;25.40;64.20;;;;;;5034815;28;20053;-74
2022/07/28 13:00:20;;;;;;;8.48;2.65;;;25.30;64.30;;;;;;5034529;28;20049;-78
2022/07/28 13:02:49;;;;;;;10.98;2.58;;;25.30;64.40;;;;;;5033505;28;20049;-76
2022/07/28 13:08:24;;;;;;;7.60;2.17;;;25.30;64.20;;;;;;5013625;28;20042;-74
2022/07/28 13:10:56;;;;;;;12.15;2.70;;;25.30;64.20;;;;;;4998233;28;20042;-75